createdAt,value
2018-11-29T00:04:00.025Z,100900.73
2018-11-29T00:09:03.983Z,100892.61
2018-11-29T00:14:07.426Z,100893.53
2018-11-29T00:19:10.825Z,100889.23
2018-11-29T00:24:14.279Z,100879.37
2018-11-29T00:29:17.649Z,100874.26
2018-11-29T00:34:21.037Z,100887.27
2018-11-29T00:39:24.438Z,100892.98
2018-11-29T00:44:34.684Z,100886.65
2018-11-29T00:49:38.014Z,100894.58
2018-11-29T00:54:41.446Z,100894.64
2018-11-29T00:59:44.811Z,100888.22
2018-11-29T01:04:48.170Z,100886.97
2018-11-29T01:09:51.635Z,100890.91
2018-11-29T01:14:54.997Z,100903.38
2018-11-29T01:19:58.450Z,100906.30
2018-11-29T01:25:01.821Z,100896.84
2018-11-29T01:30:08.463Z,100908.08
2018-11-29T01:35:12.864Z,100907.16
2018-11-29T01:40:17.947Z,100914.06
2018-11-29T01:45:33.344Z,100911.42
2018-11-29T01:50:36.747Z,100911.42
2018-11-29T01:55:40.177Z,100912.72
2018-11-29T02:00:43.597Z,100913.62
2018-11-29T02:05:47.035Z,100906.66
2018-11-29T02:10:50.825Z,100898.45
2018-11-29T02:15:54.264Z,100895.39
2018-11-29T02:20:57.696Z,100899.22
2018-11-29T02:26:01.138Z,100892.20
2018-11-29T02:31:04.560Z,100885.22
2018-11-29T02:36:07.954Z,100883.92
2018-11-29T02:41:11.368Z,100885.18
2018-11-29T02:46:14.834Z,100877.52
2018-11-29T02:51:18.296Z,100870.62
2018-11-29T02:56:21.902Z,100861.14
2018-11-29T03:01:25.299Z,100862.42
2018-11-29T03:06:28.696Z,100868.52
2018-11-29T03:11:32.111Z,100870.74
2018-11-29T03:16:35.519Z,100869.92
2018-11-29T03:21:38.964Z,100863.50
2018-11-29T03:26:42.350Z,100855.78
2018-11-29T03:31:45.725Z,100860.16
2018-11-29T03:41:58.557Z,100860.68
2018-11-29T03:47:01.984Z,100866.72
2018-11-29T03:52:05.616Z,100859.81
2018-11-29T03:57:08.989Z,100860.29
2018-11-29T04:02:12.395Z,100859.81
2018-11-29T04:07:15.816Z,100855.53
2018-11-29T04:12:19.249Z,100855.49
2018-11-29T04:17:22.682Z,100851.65
2018-11-29T04:22:26.062Z,100846.08
2018-11-29T04:27:29.596Z,100845.60
2018-11-29T04:32:32.982Z,100846.08
2018-11-29T04:37:36.503Z,100840.03
2018-11-29T04:42:39.954Z,100836.62
2018-11-29T04:47:43.371Z,100835.31
2018-11-29T04:52:46.760Z,100832.77
2018-11-29T04:57:50.178Z,100824.98
2018-11-29T05:02:53.605Z,100820.23
2018-11-29T05:07:56.979Z,100814.58
2018-11-29T05:13:00.366Z,100814.58
2018-11-29T05:18:03.955Z,100809.40
2018-11-29T05:23:08.781Z,100805.52
2018-11-29T05:28:12.572Z,100815.91
2018-11-29T05:33:16.044Z,100811.16
2018-11-29T05:38:19.557Z,100810.33
2018-11-29T05:43:22.978Z,100806.02
2018-11-29T05:48:26.415Z,100810.33
2018-11-29T05:53:29.834Z,100812.95
2018-11-29T05:58:33.217Z,100810.30
2018-11-29T06:03:36.629Z,100808.97
2018-11-29T06:08:40.041Z,100803.39
2018-11-29T06:13:43.477Z,100803.82
2018-11-29T06:18:46.901Z,100806.87
2018-11-29T06:23:50.271Z,100802.13
2018-11-29T06:28:54.216Z,100796.54
2018-11-29T06:33:57.791Z,100790.02
2018-11-29T06:39:01.167Z,100790.48
2018-11-29T06:44:04.684Z,100796.91
2018-11-29T06:54:17.277Z,100791.26
2018-11-29T06:59:20.677Z,100789.97
2018-11-29T07:04:24.082Z,100772.69
2018-11-29T07:09:27.487Z,100777.93
2018-11-29T07:14:30.916Z,100779.66
2018-11-29T07:19:34.450Z,100777.04
2018-11-29T07:24:37.883Z,100769.27
2018-11-29T07:29:41.313Z,100764.08
2018-11-29T07:34:44.864Z,100766.30
2018-11-29T07:39:48.398Z,100758.52
2018-11-29T07:44:51.822Z,100746.88
2018-11-29T07:49:55.203Z,100755.48
2018-11-29T07:54:58.772Z,100751.17
2018-11-29T08:00:02.235Z,100752.03
2018-11-29T08:05:06.919Z,100747.28
2018-11-29T08:10:29.707Z,100740.75
2018-11-29T08:15:33.282Z,100737.70
2018-11-29T08:20:37.056Z,100739.89
2018-11-29T08:25:40.819Z,100741.16
2018-11-29T08:30:44.281Z,100737.67
2018-11-29T08:35:47.649Z,100740.29
2018-11-29T08:40:51.238Z,100733.43
2018-11-29T08:45:54.626Z,100720.50
2018-11-29T08:50:58.037Z,100724.39
2018-11-29T08:56:01.486Z,100719.25
2018-11-29T09:01:04.805Z,100710.61
2018-11-29T09:06:08.179Z,100716.25
2018-11-29T09:11:11.557Z,100708.89
2018-11-29T09:16:15.016Z,100705.89
2018-11-29T09:21:18.457Z,100712.38
2018-11-29T09:26:21.983Z,100716.28
2018-11-29T09:31:25.408Z,100714.52
2018-11-29T09:36:28.860Z,100701.98
2018-11-29T09:41:32.335Z,100703.70
2018-11-29T09:46:35.777Z,100689.00
2018-11-29T09:51:39.154Z,100690.77
2018-11-29T09:56:42.533Z,100689.91
2018-11-29T10:01:45.941Z,100695.13
2018-11-29T10:11:58.747Z,100690.77
2018-11-29T10:17:02.148Z,100695.12
2018-11-29T10:22:05.670Z,100695.97
2018-11-29T10:27:09.094Z,100694.66
2018-11-29T10:32:12.518Z,100692.09
2018-11-29T10:42:25.629Z,100693.39
2018-11-29T10:47:28.990Z,100684.28
2018-11-29T10:52:32.345Z,100677.38
2018-11-29T10:57:35.728Z,100678.23
2018-11-29T11:02:58.235Z,100673.04
2018-11-29T11:08:07.799Z,100656.63
2018-11-29T11:13:05.186Z,100644.48
2018-11-29T11:18:09.729Z,100636.28
2018-11-29T11:23:13.317Z,100628.48
2018-11-29T11:28:16.826Z,100625.45
2018-11-29T11:33:20.233Z,100610.30
2018-11-29T11:38:23.619Z,100599.91
2018-11-29T11:43:27.020Z,100589.52
2018-11-29T11:48:30.386Z,100585.59
2018-11-29T11:53:33.820Z,100576.55
2018-11-29T11:58:37.228Z,100557.48
2018-11-29T12:03:40.600Z,100568.69
2018-11-29T12:08:43.996Z,100574.66
2018-11-29T12:13:47.426Z,100556.47
2018-11-29T12:18:50.868Z,100535.30
2018-11-29T12:23:54.245Z,100523.60
2018-11-29T12:28:57.626Z,100512.34
2018-11-29T12:34:01.011Z,100511.94
2018-11-29T12:39:23.947Z,100497.64
2018-11-29T12:44:27.376Z,100499.39
2018-11-29T12:49:30.803Z,100509.72
2018-11-29T12:54:34.229Z,100533.36
2018-11-29T12:59:37.649Z,100529.32
2018-11-29T13:04:41.124Z,100515.92
2018-11-29T13:09:47.839Z,100512.64
2018-11-29T13:14:54.259Z,100500.19
2018-11-29T13:19:57.666Z,100486.39
2018-11-29T13:25:01.090Z,100493.76
2018-11-29T13:30:07.932Z,100478.64
2018-11-29T13:35:34.315Z,100474.27
2018-11-29T13:40:51.053Z,100446.62
2018-11-29T13:45:53.724Z,100439.77
2018-11-29T13:50:57.116Z,100418.58
2018-11-29T13:56:00.508Z,100406.91
2018-11-29T14:01:03.893Z,100391.73
2018-11-29T14:06:07.789Z,100378.78
2018-11-29T14:11:11.225Z,100346.71
2018-11-29T14:16:14.674Z,100338.52
2018-11-29T14:21:18.106Z,100329.03
2018-11-29T14:26:21.445Z,100316.03
2018-11-29T14:31:24.849Z,100311.72
2018-11-29T14:36:28.293Z,100306.02
2018-11-29T14:41:31.742Z,100282.66
2018-11-29T14:46:35.286Z,100270.16
2018-11-29T14:51:38.768Z,100343.49
2018-11-29T14:56:42.032Z,100358.97
2018-11-29T15:01:45.454Z,100387.06
2018-11-29T15:06:49.062Z,100361.08
2018-11-29T15:11:52.493Z,100341.59
2018-11-29T15:16:56.237Z,100303.77
2018-11-29T15:21:59.585Z,100340.82
2018-11-29T15:27:02.990Z,100296.66
2018-11-29T15:32:06.473Z,100260.30
2018-11-29T15:37:10.022Z,100228.33
2018-11-29T15:47:22.852Z,100304.53
2018-11-29T15:57:35.280Z,100280.53
2018-11-29T16:02:38.692Z,100264.08
2018-11-29T16:07:42.501Z,100230.29
2018-11-29T16:12:46.070Z,100188.55
2018-11-29T16:18:01.717Z,100173.55
2018-11-29T16:23:06.325Z,100166.81
2018-11-29T16:28:10.081Z,100154.38
2018-11-29T16:33:36.839Z,100209.30
2018-11-29T16:38:40.148Z,100232.80
2018-11-29T16:43:43.571Z,100221.05
2018-11-29T16:49:06.697Z,100198.61
2018-11-29T16:54:10.219Z,100229.19
2018-11-29T16:59:13.899Z,100236.19
2018-11-29T17:04:17.455Z,100258.71
2018-11-29T17:09:20.834Z,100276.45
2018-11-29T17:14:24.266Z,100287.77
2018-11-29T17:19:30.057Z,100281.73
2018-11-29T17:24:33.572Z,100282.61
2018-11-29T17:29:37.104Z,100281.36
2018-11-29T17:34:40.536Z,100277.96
2018-11-29T17:39:44.163Z,100289.38
2018-11-29T17:49:56.884Z,100289.78
2018-11-29T17:55:00.394Z,100306.31
2018-11-29T18:00:04.577Z,100301.06
2018-11-29T18:05:08.251Z,100287.66
2018-11-29T18:10:32.123Z,100288.17
2018-11-29T18:15:36.286Z,100288.23
2018-11-29T18:20:39.847Z,100291.30
2018-11-29T18:25:43.394Z,100267.36
2018-11-29T18:30:46.736Z,100257.34
2018-11-29T18:35:50.253Z,100245.14
2018-11-29T18:40:53.914Z,100233.84
2018-11-29T18:45:57.245Z,100241.94
2018-11-29T18:51:00.791Z,100252.98
2018-11-29T18:56:04.170Z,100252.94
2018-11-29T19:01:08.047Z,100235.33
2018-11-29T19:06:11.520Z,100246.85
2018-11-29T19:11:15.068Z,100267.17
2018-11-29T19:16:30.529Z,100271.17
2018-11-29T19:21:46.538Z,100273.95
2018-11-29T19:31:59.999Z,100268.52
2018-11-29T19:37:03.485Z,100263.03
2018-11-29T19:42:06.927Z,100268.80
2018-11-29T19:47:10.497Z,100258.55
2018-11-29T19:52:14.048Z,100255.18
2018-11-29T19:57:17.569Z,100261.66
2018-11-29T20:02:21.039Z,100262.03
2018-11-29T20:07:24.593Z,100268.98
2018-11-29T20:12:27.948Z,100276.27
2018-11-29T20:17:31.506Z,100281.77
2018-11-29T20:22:35.339Z,100273.55
2018-11-29T20:27:38.863Z,100273.34
2018-11-29T20:32:42.544Z,100270.75
2018-11-29T20:37:46.328Z,100274.45
2018-11-29T20:42:50.576Z,100284.39
2018-11-29T20:47:54.039Z,100295.95
2018-11-29T20:52:59.370Z,100281.86
2018-11-29T21:03:12.308Z,100280.56
2018-11-29T21:08:15.784Z,100275.45
2018-11-29T21:13:19.280Z,100269.40
2018-11-29T21:18:22.797Z,100274.55
2018-11-29T21:28:43.330Z,100276.59
2018-11-29T21:33:45.078Z,100285.59
2018-11-29T21:54:15.926Z,100280.87
2018-11-29T21:59:38.960Z,100275.69
2018-11-29T22:04:54.391Z,100269.23
2018-11-29T22:09:57.864Z,100274.52
2018-11-29T22:15:01.242Z,100273.36
2018-11-29T22:20:05.133Z,100259.55
2018-11-29T22:25:08.502Z,100262.19
2018-11-29T22:30:13.201Z,100257.95
2018-11-29T22:35:35.946Z,100266.13
2018-11-29T22:40:39.816Z,100280.86
2018-11-29T22:45:43.290Z,100287.36
2018-11-29T22:50:46.768Z,100288.25
2018-11-29T22:55:50.185Z,100284.80
2018-11-29T23:00:53.983Z,100275.69
2018-11-29T23:05:57.395Z,100276.14
2018-11-29T23:11:00.913Z,100271.84
2018-11-29T23:16:04.527Z,100272.66
2018-11-29T23:21:07.936Z,100272.22
2018-11-29T23:26:11.369Z,100270.87
2018-11-29T23:31:14.855Z,100269.12
2018-11-29T23:36:20.949Z,100266.95
2018-11-29T23:41:24.491Z,100262.20
2018-11-29T23:46:28.238Z,100253.13
2018-11-29T23:56:40.903Z,100244.88
